createdAt,value
2018-07-24T00:00:32.503Z,22.50
2018-07-24T00:03:01.649Z,22.46
2018-07-24T00:05:30.724Z,22.44
2018-07-24T00:07:59.852Z,22.18
2018-07-24T00:10:28.912Z,22.12
2018-07-24T00:12:58.073Z,22.06
2018-07-24T00:15:27.140Z,22.11
2018-07-24T00:17:56.292Z,22.14
2018-07-24T00:20:25.403Z,22.19
2018-07-24T00:22:54.527Z,22.11
2018-07-24T00:25:23.619Z,22.04
2018-07-24T00:27:52.724Z,21.97
2018-07-24T00:30:21.836Z,21.95
2018-07-24T00:32:50.935Z,21.85
2018-07-24T00:35:20.035Z,21.68
2018-07-24T00:37:49.131Z,21.39
2018-07-24T00:40:18.244Z,21.29
2018-07-24T00:42:47.308Z,21.39
2018-07-24T00:45:16.407Z,21.42
2018-07-24T00:47:45.482Z,21.55
2018-07-24T00:50:14.566Z,21.63
2018-07-24T00:52:43.628Z,21.72
2018-07-24T00:55:12.757Z,21.75
2018-07-24T00:57:41.812Z,21.86
2018-07-24T01:00:10.924Z,21.93
2018-07-24T01:02:40.012Z,21.85
2018-07-24T01:05:09.104Z,21.78
2018-07-24T01:07:39.075Z,21.72
2018-07-24T01:10:09.668Z,21.64
2018-07-24T01:12:38.759Z,21.54
2018-07-24T01:15:08.161Z,21.45
2018-07-24T01:17:37.252Z,21.41
2018-07-24T01:20:06.412Z,21.35
2018-07-24T01:22:35.487Z,21.39
2018-07-24T01:25:04.637Z,21.42
2018-07-24T01:27:33.744Z,21.47
2018-07-24T01:30:02.877Z,21.55
2018-07-24T01:32:31.955Z,21.59
2018-07-24T01:35:01.089Z,21.59
2018-07-24T01:37:30.155Z,21.59
2018-07-24T01:39:59.236Z,21.56
2018-07-24T01:42:28.348Z,21.56
2018-07-24T01:44:57.460Z,21.54
2018-07-24T01:47:26.552Z,21.48
2018-07-24T01:49:55.628Z,21.40
2018-07-24T01:52:24.781Z,21.48
2018-07-24T01:54:53.849Z,21.43
2018-07-24T01:57:22.964Z,21.39
2018-07-24T01:59:52.025Z,21.39
2018-07-24T02:02:21.132Z,21.34
2018-07-24T02:04:50.229Z,21.23
2018-07-24T02:07:19.332Z,21.27
2018-07-24T02:09:48.476Z,21.26
2018-07-24T02:12:17.559Z,21.26
2018-07-24T02:14:46.660Z,21.21
2018-07-24T02:17:15.748Z,21.25
2018-07-24T02:19:44.825Z,21.30
2018-07-24T02:22:13.916Z,21.31
2018-07-24T02:24:42.999Z,21.22
2018-07-24T02:27:12.084Z,21.14
2018-07-24T02:29:41.148Z,21.02
2018-07-24T02:32:11.220Z,21.03
2018-07-24T02:34:40.309Z,21.07
2018-07-24T02:37:09.875Z,21.07
2018-07-24T02:39:38.920Z,21.00
2018-07-24T02:42:08.008Z,20.96
2018-07-24T02:44:37.080Z,20.98
2018-07-24T02:47:06.280Z,20.90
2018-07-24T02:49:35.343Z,20.73
2018-07-24T02:52:04.424Z,20.55
2018-07-24T02:54:33.496Z,20.50
2018-07-24T02:57:02.592Z,20.60
2018-07-24T02:59:31.656Z,20.63
2018-07-24T03:02:00.939Z,20.65
2018-07-24T03:04:30.056Z,20.69
2018-07-24T03:06:59.124Z,20.67
2018-07-24T03:09:28.235Z,20.63
2018-07-24T03:11:57.328Z,20.57
2018-07-24T03:14:26.418Z,20.46
2018-07-24T03:16:55.488Z,20.42
2018-07-24T03:19:24.581Z,20.40
2018-07-24T03:21:53.648Z,20.28
2018-07-24T03:24:22.745Z,20.30
2018-07-24T03:26:51.821Z,20.33
2018-07-24T03:29:20.947Z,20.31
2018-07-24T03:31:50.045Z,20.33
2018-07-24T03:34:19.152Z,20.31
2018-07-24T03:36:48.230Z,20.34
2018-07-24T03:39:17.337Z,20.39
2018-07-24T03:41:46.412Z,20.38
2018-07-24T03:44:15.512Z,20.36
2018-07-24T03:46:44.584Z,20.39
2018-07-24T03:49:13.712Z,20.39
2018-07-24T03:51:42.784Z,20.35
2018-07-24T03:54:11.872Z,20.36
2018-07-24T03:56:40.961Z,20.33
2018-07-24T03:59:10.081Z,20.32
2018-07-24T04:01:39.157Z,20.28
2018-07-24T04:04:08.277Z,20.24
2018-07-24T04:06:37.364Z,20.24
2018-07-24T04:09:08.125Z,20.19
2018-07-24T04:11:37.340Z,20.16
2018-07-24T04:14:06.416Z,20.08
2018-07-24T04:16:35.616Z,20.06
2018-07-24T04:19:04.744Z,20.02
2018-07-24T04:21:33.893Z,20.02
2018-07-24T04:24:02.968Z,20.01
2018-07-24T04:26:32.073Z,20.04
2018-07-24T04:29:01.196Z,20.16
2018-07-24T04:31:30.300Z,20.21
2018-07-24T04:33:59.420Z,20.36
2018-07-24T04:36:28.568Z,20.33
2018-07-24T04:38:57.657Z,20.33
2018-07-24T04:41:26.773Z,20.38
2018-07-24T04:43:55.855Z,20.46
2018-07-24T04:46:24.956Z,20.59
2018-07-24T04:48:54.076Z,20.61
2018-07-24T04:51:23.200Z,20.60
2018-07-24T04:53:52.301Z,20.64
2018-07-24T04:56:21.393Z,20.71
2018-07-24T04:58:50.504Z,20.81
2018-07-24T05:01:19.632Z,20.85
2018-07-24T05:03:48.770Z,20.93
2018-07-24T05:06:17.871Z,21.08
2018-07-24T05:08:46.972Z,21.20
2018-07-24T05:11:16.061Z,21.17
2018-07-24T05:13:45.172Z,21.29
2018-07-24T05:16:14.269Z,21.40
2018-07-24T05:18:43.388Z,21.48
2018-07-24T05:21:12.567Z,21.55
2018-07-24T05:23:41.758Z,21.61
2018-07-24T05:26:10.792Z,21.70
2018-07-24T05:28:39.924Z,21.75
2018-07-24T05:31:09.005Z,21.80
2018-07-24T05:33:38.108Z,21.93
2018-07-24T05:36:07.210Z,21.97
2018-07-24T05:38:36.348Z,22.07
2018-07-24T05:41:05.456Z,22.19
2018-07-24T05:43:34.563Z,22.38
2018-07-24T05:46:03.664Z,22.57
2018-07-24T05:48:32.859Z,22.53
2018-07-24T05:51:01.925Z,22.55
2018-07-24T05:53:31.024Z,22.72
2018-07-24T05:56:00.232Z,22.92
2018-07-24T05:58:29.336Z,23.11
2018-07-24T06:00:58.502Z,23.34
2018-07-24T06:03:29.443Z,23.56
2018-07-24T06:05:58.625Z,23.84
2018-07-24T06:08:27.812Z,24.02
2018-07-24T06:10:56.905Z,24.27
2018-07-24T06:13:26.004Z,24.43
2018-07-24T06:15:55.173Z,24.63
2018-07-24T06:18:24.244Z,24.86
2018-07-24T06:20:53.353Z,25.06
2018-07-24T06:23:22.452Z,25.23
2018-07-24T06:25:51.543Z,25.52
2018-07-24T06:28:20.616Z,25.72
2018-07-24T06:30:49.704Z,25.93
2018-07-24T06:33:18.788Z,26.03
2018-07-24T06:35:47.896Z,26.21
2018-07-24T06:38:16.977Z,26.39
2018-07-24T06:40:46.088Z,26.53
2018-07-24T06:43:15.168Z,26.62
2018-07-24T06:45:44.240Z,26.68
2018-07-24T06:48:13.340Z,26.72
2018-07-24T06:50:42.412Z,26.76
2018-07-24T06:53:11.552Z,26.75
2018-07-24T06:55:40.628Z,26.91
2018-07-24T06:58:09.743Z,27.05
2018-07-24T07:00:38.821Z,27.19
2018-07-24T07:03:07.960Z,27.30
2018-07-24T07:05:37.021Z,27.30
2018-07-24T07:08:06.132Z,27.30
2018-07-24T07:10:35.239Z,27.44
2018-07-24T07:13:04.358Z,27.48
2018-07-24T07:15:33.427Z,27.54
2018-07-24T07:18:02.524Z,27.61
2018-07-24T07:20:31.648Z,27.70
2018-07-24T07:23:00.788Z,27.77
2018-07-24T07:25:29.996Z,27.86
2018-07-24T07:27:59.128Z,27.91
2018-07-24T07:30:28.243Z,28.01
2018-07-24T07:32:57.336Z,28.11
2018-07-24T07:35:26.413Z,28.13
2018-07-24T07:37:55.524Z,28.20
2018-07-24T07:40:24.605Z,28.31
2018-07-24T07:42:54.596Z,28.43
2018-07-24T07:45:24.703Z,28.49
2018-07-24T07:47:53.794Z,28.51
2018-07-24T07:50:22.863Z,28.61
2018-07-24T07:52:51.946Z,28.75
2018-07-24T07:55:21.060Z,28.86
2018-07-24T07:57:50.149Z,29.03
2018-07-24T08:00:19.288Z,29.06
2018-07-24T08:02:48.415Z,29.16
2018-07-24T08:05:17.496Z,29.28
2018-07-24T08:07:46.575Z,29.35
2018-07-24T08:10:15.685Z,29.45
2018-07-24T08:12:44.763Z,29.48
2018-07-24T08:15:13.852Z,29.53
2018-07-24T08:17:42.949Z,29.58
2018-07-24T08:20:12.105Z,29.62
2018-07-24T08:22:41.207Z,29.64
2018-07-24T08:25:10.301Z,29.71
2018-07-24T08:27:39.372Z,29.78
2018-07-24T08:30:08.496Z,29.82
2018-07-24T08:32:37.623Z,29.77
2018-07-24T08:35:06.730Z,29.64
2018-07-24T08:37:35.819Z,29.61
2018-07-24T08:40:05.263Z,29.70
2018-07-24T08:42:34.332Z,29.83
2018-07-24T08:45:04.017Z,29.95
2018-07-24T08:47:33.265Z,30.06
2018-07-24T08:50:03.033Z,30.21
2018-07-24T08:52:32.176Z,30.24
2018-07-24T08:55:01.537Z,30.31
2018-07-24T08:57:30.428Z,30.38
2018-07-24T08:59:59.526Z,30.65
2018-07-24T09:02:28.629Z,30.67
2018-07-24T09:04:57.869Z,30.80
2018-07-24T09:07:26.980Z,31.06
2018-07-24T09:09:58.143Z,31.15
2018-07-24T09:12:27.600Z,31.22
2018-07-24T09:14:56.684Z,31.21
2018-07-24T09:17:25.800Z,31.31
2018-07-24T09:19:54.868Z,31.23
2018-07-24T09:22:23.968Z,31.13
2018-07-24T09:24:53.033Z,31.26
2018-07-24T09:27:22.171Z,31.25
2018-07-24T09:29:51.333Z,31.20
2018-07-24T09:32:20.412Z,31.55
2018-07-24T09:34:50.213Z,31.40
2018-07-24T09:37:19.344Z,31.51
2018-07-24T09:39:48.420Z,31.62
2018-07-24T09:42:17.560Z,31.76
2018-07-24T09:44:46.657Z,31.77
2018-07-24T09:47:15.842Z,31.76
2018-07-24T09:49:44.985Z,31.85
2018-07-24T09:52:21.168Z,31.95
2018-07-24T09:54:50.425Z,31.86
2018-07-24T09:57:19.639Z,31.93
2018-07-24T09:59:48.764Z,32.11
2018-07-24T10:02:17.964Z,32.16
2018-07-24T10:04:47.081Z,31.88
2018-07-24T10:07:16.157Z,31.99
2018-07-24T10:09:45.254Z,32.24
2018-07-24T10:12:14.414Z,32.65
2018-07-24T10:14:43.524Z,32.94
2018-07-24T10:17:12.609Z,32.98
2018-07-24T10:19:41.696Z,33.23
2018-07-24T10:22:10.842Z,33.13
2018-07-24T10:24:40.233Z,33.14
2018-07-24T10:27:09.369Z,33.21
2018-07-24T10:29:38.472Z,33.01
2018-07-24T10:32:07.557Z,32.89
2018-07-24T10:34:36.796Z,32.68
2018-07-24T10:37:06.471Z,32.68
2018-07-24T10:39:35.585Z,32.56
2018-07-24T10:42:04.661Z,32.73
2018-07-24T10:44:33.755Z,32.58
2018-07-24T10:47:02.860Z,32.75
2018-07-24T10:49:31.965Z,32.69
2018-07-24T10:52:01.092Z,32.71
2018-07-24T10:54:30.189Z,32.62
2018-07-24T10:56:59.305Z,32.37
2018-07-24T10:59:28.413Z,32.53
2018-07-24T11:01:57.524Z,32.58
2018-07-24T11:04:26.668Z,32.62
2018-07-24T11:06:56.125Z,32.59
2018-07-24T11:09:25.230Z,32.64
2018-07-24T11:11:54.552Z,32.87
2018-07-24T11:14:23.730Z,32.92
2018-07-24T11:16:53.013Z,32.92
2018-07-24T11:19:22.440Z,32.94
2018-07-24T11:21:51.558Z,33.17
2018-07-24T11:24:20.761Z,33.33
2018-07-24T11:26:49.884Z,33.37
2018-07-24T11:29:19.029Z,33.43
2018-07-24T11:31:48.233Z,33.34
2018-07-24T11:34:17.343Z,33.10
2018-07-24T11:36:46.506Z,33.02
2018-07-24T11:39:15.616Z,32.95
2018-07-24T11:41:44.938Z,32.93
2018-07-24T11:44:14.018Z,32.88
2018-07-24T11:46:43.132Z,32.79
2018-07-24T11:49:12.217Z,32.93
2018-07-24T11:51:41.531Z,33.03
2018-07-24T11:54:10.571Z,33.14
2018-07-24T11:56:39.704Z,32.92
2018-07-24T11:59:08.777Z,32.95
2018-07-24T12:01:37.888Z,33.01
2018-07-24T12:04:06.981Z,33.00
2018-07-24T12:06:36.077Z,32.89
2018-07-24T12:09:09.056Z,32.97
2018-07-24T12:11:39.119Z,32.88
2018-07-24T12:14:08.616Z,32.91
2018-07-24T12:16:37.753Z,32.94
2018-07-24T12:19:06.836Z,32.92
2018-07-24T12:21:36.004Z,33.11
2018-07-24T12:24:05.080Z,33.20
2018-07-24T12:26:34.171Z,33.14
2018-07-24T12:29:03.276Z,33.25
2018-07-24T12:31:32.381Z,33.23
2018-07-24T12:34:01.452Z,33.50
2018-07-24T12:36:30.553Z,33.59
2018-07-24T12:38:59.646Z,33.67
2018-07-24T12:41:28.744Z,33.77
2018-07-24T12:43:57.837Z,33.82
2018-07-24T12:46:26.909Z,33.82
2018-07-24T12:48:56.013Z,33.77
2018-07-24T12:51:25.129Z,33.64
2018-07-24T12:53:54.237Z,33.72
2018-07-24T12:56:23.328Z,33.78
2018-07-24T12:58:52.460Z,33.79
2018-07-24T13:01:21.557Z,33.80
2018-07-24T13:03:50.671Z,33.82
2018-07-24T13:06:19.744Z,33.57
2018-07-24T13:08:48.860Z,33.69
2018-07-24T13:11:17.988Z,33.77
2018-07-24T13:13:47.740Z,33.82
2018-07-24T13:16:16.828Z,33.84
2018-07-24T13:18:45.937Z,33.89
2018-07-24T13:21:15.028Z,33.79
2018-07-24T13:23:44.130Z,33.85
2018-07-24T13:26:13.190Z,33.80
2018-07-24T13:28:42.312Z,33.79
2018-07-24T13:31:11.404Z,33.81
2018-07-24T13:33:40.492Z,33.90
2018-07-24T13:36:09.569Z,33.85
2018-07-24T13:38:38.868Z,33.98
2018-07-24T13:41:07.992Z,34.18
2018-07-24T13:43:37.081Z,34.38
2018-07-24T13:46:06.177Z,34.38
2018-07-24T13:48:35.281Z,34.21
2018-07-24T13:51:04.365Z,33.98
2018-07-24T13:53:33.487Z,33.90
2018-07-24T13:56:02.551Z,33.91
2018-07-24T13:58:31.719Z,33.91
2018-07-24T14:01:01.239Z,33.89
2018-07-24T14:03:31.000Z,34.19
2018-07-24T14:06:00.939Z,34.39
2018-07-24T14:08:30.145Z,34.44
2018-07-24T14:10:59.168Z,34.47
2018-07-24T14:13:28.245Z,34.44
2018-07-24T14:15:57.372Z,34.45
2018-07-24T14:18:26.576Z,34.42
2018-07-24T14:20:55.712Z,34.42
2018-07-24T14:23:24.804Z,34.42
2018-07-24T14:25:53.904Z,34.50
2018-07-24T14:28:23.048Z,34.42
2018-07-24T14:30:52.141Z,34.26
2018-07-24T14:33:21.216Z,34.24
2018-07-24T14:35:50.332Z,34.11
2018-07-24T14:38:19.511Z,34.22
2018-07-24T14:40:48.622Z,34.24
2018-07-24T14:43:17.801Z,34.33
2018-07-24T14:45:46.916Z,34.27
2018-07-24T14:48:16.001Z,34.24
2018-07-24T14:50:45.214Z,34.33
2018-07-24T14:53:14.512Z,34.26
2018-07-24T14:55:43.768Z,34.24
2018-07-24T14:58:12.832Z,34.29
2018-07-24T15:00:41.985Z,34.30
2018-07-24T15:03:11.164Z,34.08
2018-07-24T15:05:40.277Z,34.06
2018-07-24T15:08:09.372Z,34.02
2018-07-24T15:10:38.496Z,34.14
2018-07-24T15:13:07.637Z,34.20
2018-07-24T15:15:36.785Z,34.17
2018-07-24T15:18:06.045Z,34.06
2018-07-24T15:20:35.153Z,34.04
2018-07-24T15:23:04.452Z,34.06
2018-07-24T15:25:33.671Z,33.98
2018-07-24T15:28:02.856Z,34.03
2018-07-24T15:30:32.217Z,34.01
2018-07-24T15:33:01.423Z,33.96
2018-07-24T15:35:30.544Z,33.90
2018-07-24T15:37:59.732Z,33.94
2018-07-24T15:40:28.796Z,33.82
2018-07-24T15:42:57.897Z,33.87
2018-07-24T15:45:26.995Z,33.89
2018-07-24T15:47:56.092Z,34.00
2018-07-24T15:50:25.172Z,33.95
2018-07-24T15:52:54.273Z,33.83
2018-07-24T15:55:23.372Z,33.78
2018-07-24T15:57:52.536Z,33.75
2018-07-24T16:00:21.559Z,33.81
2018-07-24T16:02:50.668Z,33.93
2018-07-24T16:05:19.780Z,33.79
2018-07-24T16:07:48.860Z,33.66
2018-07-24T16:10:17.952Z,33.72
2018-07-24T16:12:47.068Z,33.77
2018-07-24T16:15:16.174Z,33.72
2018-07-24T16:17:45.272Z,33.82
2018-07-24T16:20:14.379Z,33.95
2018-07-24T16:22:43.509Z,33.88
2018-07-24T16:25:12.604Z,33.78
2018-07-24T16:27:41.696Z,33.70
2018-07-24T16:30:10.768Z,33.77
2018-07-24T16:32:39.892Z,33.75
2018-07-24T16:35:08.960Z,33.68
2018-07-24T16:37:38.031Z,33.66
2018-07-24T16:40:07.138Z,33.67
2018-07-24T16:42:36.211Z,33.63
2018-07-24T16:45:05.506Z,33.64
2018-07-24T16:47:34.589Z,33.67
2018-07-24T16:50:03.711Z,33.67
2018-07-24T16:52:32.816Z,33.68
2018-07-24T16:55:02.058Z,33.61
2018-07-24T16:57:31.132Z,33.48
2018-07-24T17:00:00.225Z,33.52
2018-07-24T17:02:29.321Z,33.52
2018-07-24T17:04:58.779Z,33.48
2018-07-24T17:07:27.857Z,33.44
2018-07-24T17:09:56.949Z,33.40
2018-07-24T17:12:26.079Z,33.47
2018-07-24T17:14:55.208Z,33.36
2018-07-24T17:17:24.313Z,33.32
2018-07-24T17:19:53.575Z,33.34
2018-07-24T17:22:22.567Z,33.29
2018-07-24T17:24:51.676Z,33.17
2018-07-24T17:27:20.785Z,33.22
2018-07-24T17:29:49.868Z,33.20
2018-07-24T17:32:19.808Z,33.16
2018-07-24T17:34:48.903Z,33.08
2018-07-24T17:37:17.985Z,33.04
2018-07-24T17:39:47.108Z,32.98
2018-07-24T17:42:16.181Z,32.95
2018-07-24T17:44:45.305Z,32.91
2018-07-24T17:47:15.192Z,32.85
2018-07-24T17:49:44.268Z,32.83
2018-07-24T17:52:13.376Z,32.88
2018-07-24T17:54:42.440Z,32.78
2018-07-24T17:57:11.536Z,32.82
2018-07-24T17:59:40.600Z,32.75
2018-07-24T18:02:10.000Z,32.71
2018-07-24T18:04:39.124Z,32.66
2018-07-24T18:07:08.294Z,32.59
2018-07-24T18:09:37.364Z,32.57
2018-07-24T18:12:06.555Z,32.54
2018-07-24T18:14:35.640Z,32.44
2018-07-24T18:17:04.753Z,32.36
2018-07-24T18:19:33.924Z,32.31
2018-07-24T18:22:03.028Z,32.36
2018-07-24T18:24:32.140Z,32.23
2018-07-24T18:27:01.228Z,32.33
2018-07-24T18:29:30.348Z,32.44
2018-07-24T18:31:59.475Z,32.46
2018-07-24T18:34:29.356Z,32.50
2018-07-24T18:36:58.453Z,32.51
2018-07-24T18:39:27.534Z,32.50
2018-07-24T18:41:56.643Z,32.50
2018-07-24T18:44:25.981Z,32.47
2018-07-24T18:46:55.365Z,32.41
2018-07-24T18:49:24.383Z,32.40
2018-07-24T18:51:53.485Z,32.39
2018-07-24T18:54:22.588Z,32.33
2018-07-24T18:56:51.671Z,32.27
2018-07-24T18:59:20.744Z,32.21
2018-07-24T19:01:49.852Z,32.11
2018-07-24T19:04:18.943Z,32.06
2018-07-24T19:06:48.032Z,32.03
2018-07-24T19:09:17.119Z,31.99
2018-07-24T19:11:46.228Z,31.96
2018-07-24T19:14:15.304Z,31.84
2018-07-24T19:16:44.392Z,31.76
2018-07-24T19:19:13.505Z,31.64
2018-07-24T19:21:42.588Z,31.63
2018-07-24T19:24:11.816Z,31.55
2018-07-24T19:26:40.970Z,31.43
2018-07-24T19:29:11.697Z,31.34
2018-07-24T19:31:59.500Z,31.14
2018-07-24T19:34:28.612Z,31.01
2018-07-24T19:36:57.800Z,30.92
2018-07-24T19:39:26.936Z,30.88
2018-07-24T19:41:56.112Z,30.76
2018-07-24T19:44:25.271Z,30.62
2018-07-24T19:46:54.414Z,30.53
2018-07-24T19:49:23.581Z,30.43
2018-07-24T19:51:52.640Z,30.33
2018-07-24T19:54:21.740Z,30.23
2018-07-24T19:56:50.885Z,30.20
2018-07-24T19:59:20.492Z,30.15
2018-07-24T20:01:49.995Z,30.05
2018-07-24T20:04:19.207Z,29.91
2018-07-24T20:06:48.296Z,29.86
2018-07-24T20:09:17.496Z,29.69
2018-07-24T20:11:47.431Z,29.64
2018-07-24T20:14:16.613Z,29.58
2018-07-24T20:16:45.703Z,29.59
2018-07-24T20:19:14.940Z,29.61
2018-07-24T20:21:44.017Z,29.60
2018-07-24T20:24:13.120Z,29.56
2018-07-24T20:26:42.262Z,29.54
2018-07-24T20:29:11.395Z,29.49
2018-07-24T20:31:40.487Z,29.39
2018-07-24T20:34:09.593Z,29.35
2018-07-24T20:36:38.696Z,29.29
2018-07-24T20:39:09.969Z,29.10
2018-07-24T20:41:39.123Z,28.94
2018-07-24T20:44:08.516Z,28.82
2018-07-24T20:46:37.637Z,28.73
2018-07-24T20:49:06.744Z,28.59
2018-07-24T20:51:35.840Z,28.46
2018-07-24T20:54:05.936Z,28.43
2018-07-24T20:56:35.084Z,28.35
2018-07-24T20:59:04.128Z,28.31
2018-07-24T21:01:33.329Z,28.29
2018-07-24T21:04:02.436Z,28.25
2018-07-24T21:06:31.553Z,28.25
2018-07-24T21:09:00.620Z,28.28
2018-07-24T21:11:29.787Z,28.30
2018-07-24T21:13:58.865Z,28.24
2018-07-24T21:16:28.010Z,28.23
2018-07-24T21:18:57.080Z,28.17
2018-07-24T21:21:26.177Z,28.12
2018-07-24T21:23:55.272Z,28.09
2018-07-24T21:26:24.388Z,28.05
2018-07-24T21:28:53.464Z,27.95
2018-07-24T21:31:22.608Z,27.83
2018-07-24T21:33:51.674Z,27.79
2018-07-24T21:36:20.844Z,27.70
2018-07-24T21:38:49.936Z,27.72
2018-07-24T21:41:19.024Z,27.62
2018-07-24T21:43:48.136Z,27.58
2018-07-24T21:46:17.260Z,27.56
2018-07-24T21:48:46.394Z,27.52
2018-07-24T21:51:15.436Z,27.44
2018-07-24T21:53:44.527Z,27.42
2018-07-24T21:56:13.614Z,27.32
2018-07-24T21:58:42.680Z,27.19
2018-07-24T22:01:12.287Z,27.14
2018-07-24T22:03:41.540Z,27.14
2018-07-24T22:06:10.961Z,27.07
2018-07-24T22:08:40.166Z,26.94
2018-07-24T22:11:09.184Z,26.85
2018-07-24T22:13:38.260Z,26.80
2018-07-24T22:16:07.349Z,26.69
2018-07-24T22:18:36.415Z,26.39
2018-07-24T22:21:05.500Z,26.12
2018-07-24T22:23:34.577Z,26.27
2018-07-24T22:26:03.666Z,26.29
2018-07-24T22:28:32.799Z,26.24
2018-07-24T22:31:01.900Z,26.06
2018-07-24T22:33:30.984Z,25.82
2018-07-24T22:36:00.072Z,25.83
2018-07-24T22:38:29.168Z,25.88
2018-07-24T22:40:58.287Z,26.02
2018-07-24T22:43:27.360Z,26.16
2018-07-24T22:45:56.444Z,26.16
2018-07-24T22:48:25.532Z,26.07
2018-07-24T22:50:54.611Z,25.88
2018-07-24T22:53:23.716Z,25.70
2018-07-24T22:55:52.781Z,25.56
2018-07-24T22:58:21.880Z,25.64
2018-07-24T23:00:50.961Z,25.75
2018-07-24T23:03:20.072Z,25.88
2018-07-24T23:05:49.144Z,25.93
2018-07-24T23:08:18.245Z,25.94
2018-07-24T23:10:47.328Z,25.88
2018-07-24T23:13:16.408Z,25.85
2018-07-24T23:15:45.476Z,25.86
2018-07-24T23:18:14.556Z,25.82
2018-07-24T23:20:43.624Z,25.76
2018-07-24T23:23:12.736Z,25.74
2018-07-24T23:25:41.804Z,25.68
2018-07-24T23:28:10.919Z,25.68
2018-07-24T23:30:40.044Z,25.66
2018-07-24T23:33:09.166Z,25.60
2018-07-24T23:35:38.266Z,25.49
2018-07-24T23:38:07.644Z,25.36
2018-07-24T23:40:36.752Z,25.29
2018-07-24T23:43:05.863Z,25.21
2018-07-24T23:45:34.964Z,25.24
2018-07-24T23:48:04.053Z,25.24
2018-07-24T23:50:33.120Z,25.22
2018-07-24T23:53:02.213Z,25.24
2018-07-24T23:55:34.376Z,25.28
2018-07-24T23:58:04.452Z,25.26
